createdAt,value
2023-04-24T00:02:25.336Z,2.60
2023-04-24T00:04:53.646Z,5.30
2023-04-24T00:07:22.480Z,1.70
2023-04-24T00:09:50.671Z,2.03
2023-04-24T00:12:19.204Z,2.23
2023-04-24T00:14:48.859Z,2.20
2023-04-24T00:17:17.140Z,2.73
2023-04-24T00:19:45.676Z,2.73
2023-04-24T00:22:14.419Z,3.67
2023-04-24T00:24:42.763Z,2.97
2023-04-24T00:27:10.948Z,4.90
2023-04-24T00:29:39.830Z,2.50
2023-04-24T00:32:09.411Z,3.93
2023-04-24T00:34:37.609Z,3.90
2023-04-24T00:37:06.393Z,3.27
2023-04-24T00:39:37.251Z,2.77
2023-04-24T00:42:07.560Z,2.80
2023-04-24T00:44:36.051Z,3.03
2023-04-24T00:47:04.466Z,1.97
2023-04-24T00:49:33.960Z,2.00
2023-04-24T00:52:02.294Z,3.27
2023-04-24T00:54:30.741Z,7.83
2023-04-24T00:56:58.971Z,2.10
2023-04-24T00:59:27.689Z,2.73
2023-04-24T01:01:56.393Z,1.67
2023-04-24T01:04:24.807Z,2.57
2023-04-24T01:06:55.112Z,4.20
2023-04-24T01:09:25.812Z,4.70
2023-04-24T01:11:54.022Z,2.73
2023-04-24T01:14:22.708Z,2.67
2023-04-24T01:16:50.897Z,2.17
2023-04-24T01:19:21.144Z,2.17
2023-04-24T01:21:53.260Z,2.47
2023-04-24T01:24:23.070Z,2.00
2023-04-24T01:26:51.199Z,2.53
2023-04-24T01:29:19.451Z,3.00
2023-04-24T01:31:47.977Z,3.87
2023-04-24T01:34:17.558Z,2.77
2023-04-24T01:36:48.081Z,1.90
2023-04-24T01:39:17.722Z,1.40
2023-04-24T01:41:48.242Z,3.10
2023-04-24T01:44:16.902Z,1.63
2023-04-24T01:46:45.306Z,1.73
2023-04-24T01:49:13.694Z,1.77
2023-04-24T01:51:42.173Z,3.03
2023-04-24T01:54:10.277Z,2.93
2023-04-24T01:56:42.878Z,5.80
2023-04-24T01:59:13.742Z,1.80
2023-04-24T02:01:42.187Z,2.47
2023-04-24T02:04:11.056Z,3.40
2023-04-24T02:06:39.138Z,2.97
2023-04-24T02:09:07.777Z,2.67
2023-04-24T02:11:35.852Z,2.53
2023-04-24T02:14:03.881Z,4.07
2023-04-24T02:16:35.033Z,2.13
2023-04-24T02:19:03.358Z,3.63
2023-04-24T02:21:32.278Z,1.73
2023-04-24T02:24:01.544Z,1.73
2023-04-24T02:26:29.659Z,3.27
2023-04-24T02:28:57.765Z,4.33
2023-04-24T02:31:26.009Z,1.83
2023-04-24T02:33:55.514Z,4.00
2023-04-24T02:36:23.942Z,4.50
2023-04-24T02:38:52.103Z,5.07
2023-04-24T02:41:20.838Z,3.83
2023-04-24T02:43:48.933Z,6.83
2023-04-24T02:46:17.088Z,4.23
2023-04-24T02:48:45.439Z,4.10
2023-04-24T02:51:15.016Z,7.37
2023-04-24T02:53:43.127Z,4.80
2023-04-24T02:56:13.546Z,5.20
2023-04-24T02:58:41.896Z,5.50
2023-04-24T03:01:10.979Z,7.10
2023-04-24T03:03:39.526Z,8.33
2023-04-24T03:06:09.182Z,8.53
2023-04-24T03:08:39.672Z,7.30
2023-04-24T03:11:07.834Z,8.93
2023-04-24T03:13:36.131Z,6.40
2023-04-24T03:16:04.677Z,7.30
2023-04-24T03:18:32.789Z,6.43
2023-04-24T03:21:00.901Z,7.00
2023-04-24T03:23:28.900Z,6.07
2023-04-24T03:25:58.900Z,7.57
2023-04-24T03:28:27.702Z,5.90
2023-04-24T03:30:55.905Z,6.43
2023-04-24T03:33:23.927Z,5.70
2023-04-24T03:35:52.039Z,7.97
2023-04-24T03:38:20.588Z,6.63
2023-04-24T03:40:48.961Z,7.80
2023-04-24T03:43:18.806Z,4.53
2023-04-24T03:45:48.328Z,4.00
2023-04-24T03:48:16.505Z,4.13
2023-04-24T03:50:46.015Z,7.40
2023-04-24T03:53:14.501Z,4.73
2023-04-24T03:55:42.619Z,4.50
2023-04-24T03:58:10.788Z,5.63
2023-04-24T04:00:41.418Z,3.40
2023-04-24T04:03:09.727Z,2.80
2023-04-24T04:05:37.937Z,3.10
2023-04-24T04:08:06.084Z,3.93
2023-04-24T04:10:34.331Z,3.17
2023-04-24T04:13:02.968Z,1.80
2023-04-24T04:15:33.644Z,2.40
2023-04-24T04:18:03.308Z,4.50
2023-04-24T04:20:31.719Z,3.00
2023-04-24T04:22:59.800Z,2.57
2023-04-24T04:25:27.951Z,1.90
2023-04-24T04:27:56.248Z,3.37
2023-04-24T04:30:24.623Z,3.00
2023-04-24T04:32:53.048Z,1.97
2023-04-24T04:35:23.228Z,2.27
2023-04-24T04:37:52.528Z,1.97
2023-04-24T04:40:20.542Z,1.97
2023-04-24T04:42:48.837Z,3.50
2023-04-24T04:45:18.502Z,3.27
2023-04-24T04:47:46.830Z,2.27
2023-04-24T04:50:14.910Z,2.30
2023-04-24T04:52:44.825Z,3.33
2023-04-24T04:55:14.824Z,2.23
2023-04-24T04:57:42.976Z,2.90
2023-04-24T05:00:13.114Z,2.67
2023-04-24T05:02:41.747Z,2.10
2023-04-24T05:05:11.260Z,4.67
2023-04-24T05:07:39.452Z,2.60
2023-04-24T05:10:10.809Z,2.30
2023-04-24T05:12:38.955Z,2.40
2023-04-24T05:15:07.879Z,12.57
2023-04-24T05:17:36.713Z,3.67
2023-04-24T05:20:06.541Z,4.57
2023-04-24T05:22:34.805Z,2.73
2023-04-24T05:25:03.520Z,2.27
2023-04-24T05:27:33.284Z,2.50
2023-04-24T05:30:02.572Z,2.63
2023-04-24T05:32:30.951Z,2.57
2023-04-24T05:34:59.074Z,4.60
2023-04-24T05:37:27.631Z,4.40
2023-04-24T05:39:55.652Z,2.80
2023-04-24T05:42:23.725Z,2.80
2023-04-24T05:44:57.395Z,2.33
2023-04-24T05:47:27.472Z,2.73
2023-04-24T05:49:55.805Z,2.63
2023-04-24T05:52:24.001Z,3.43
2023-04-24T05:54:52.161Z,3.93
2023-04-24T05:57:20.568Z,3.40
2023-04-24T05:59:48.873Z,2.70
2023-04-24T06:02:18.779Z,2.97
2023-04-24T06:04:47.783Z,2.83
2023-04-24T06:07:16.097Z,4.57
2023-04-24T06:09:45.696Z,2.50
2023-04-24T06:12:13.872Z,3.93
2023-04-24T06:14:42.087Z,2.20
2023-04-24T06:17:10.258Z,3.13
2023-04-24T06:19:39.969Z,2.33
2023-04-24T06:22:09.712Z,3.20
2023-04-24T06:24:38.941Z,3.37
2023-04-24T06:27:07.208Z,4.17
2023-04-24T06:29:35.748Z,4.40
2023-04-24T06:32:04.061Z,3.43
2023-04-24T06:34:33.724Z,3.47
2023-04-24T06:37:03.412Z,4.60
2023-04-24T06:39:31.530Z,4.73
2023-04-24T06:42:00.100Z,4.93
2023-04-24T06:44:28.473Z,4.07
2023-04-24T06:46:56.522Z,5.57
2023-04-24T06:49:24.625Z,3.33
2023-04-24T06:51:52.618Z,3.97
2023-04-24T06:54:22.166Z,3.30
2023-04-24T06:56:51.367Z,3.83
2023-04-24T06:59:19.688Z,4.77
2023-04-24T07:01:48.215Z,4.67
2023-04-24T07:04:16.783Z,3.60
2023-04-24T07:06:45.546Z,4.00
2023-04-24T07:09:14.600Z,5.53
2023-04-24T07:11:45.819Z,4.70
2023-04-24T07:14:14.083Z,4.17
2023-04-24T07:16:42.744Z,3.87
2023-04-24T07:19:10.885Z,6.43
2023-04-24T07:21:39.010Z,4.33
2023-04-24T07:24:10.538Z,4.40
2023-04-24T07:26:39.839Z,4.40
2023-04-24T07:29:10.052Z,7.10
2023-04-24T07:31:38.433Z,4.93
2023-04-24T07:34:06.916Z,5.23
2023-04-24T07:36:35.037Z,6.33
2023-04-24T07:39:03.714Z,6.30
2023-04-24T07:41:31.989Z,4.80
2023-04-24T07:44:00.724Z,4.90
2023-04-24T07:46:32.399Z,5.13
2023-04-24T07:49:13.262Z,6.13
2023-04-24T07:51:43.074Z,5.20
2023-04-24T07:54:11.429Z,4.87
2023-04-24T07:56:40.660Z,4.10
2023-04-24T07:59:09.252Z,4.03
2023-04-24T08:01:39.136Z,4.03
2023-04-24T08:04:07.480Z,5.00
2023-04-24T08:06:36.185Z,6.20
2023-04-24T08:09:04.758Z,3.60
2023-04-24T08:11:33.042Z,3.00
2023-04-24T08:14:01.311Z,3.30
2023-04-24T08:16:29.816Z,4.87
2023-04-24T08:18:59.687Z,5.07
2023-04-24T08:21:28.296Z,5.00
2023-04-24T08:23:56.503Z,3.83
2023-04-24T08:26:25.165Z,5.03
2023-04-24T08:28:53.481Z,3.57
2023-04-24T08:31:21.923Z,3.57
2023-04-24T08:33:52.650Z,3.83
2023-04-24T08:36:23.804Z,3.37
2023-04-24T08:38:55.148Z,3.20
2023-04-24T08:41:27.228Z,3.10
2023-04-24T08:43:56.513Z,5.13
2023-04-24T08:46:25.319Z,3.10
2023-04-24T08:48:54.952Z,3.27
2023-04-24T08:51:28.772Z,2.97
2023-04-24T08:53:57.266Z,3.77
2023-04-24T08:56:26.241Z,3.50
2023-04-24T08:58:56.216Z,3.70
2023-04-24T09:01:27.924Z,2.57
2023-04-24T09:03:59.285Z,4.20
2023-04-24T09:06:29.207Z,2.40
2023-04-24T09:08:58.595Z,2.67
2023-04-24T09:11:27.371Z,3.10
2023-04-24T09:13:57.047Z,2.77
2023-04-24T09:16:25.754Z,4.37
2023-04-24T09:18:54.707Z,2.97
2023-04-24T09:21:24.352Z,4.40
2023-04-24T09:24:03.732Z,4.23
2023-04-24T09:26:34.403Z,2.50
2023-04-24T09:29:03.300Z,2.43
2023-04-24T09:31:32.029Z,5.40
2023-04-24T09:34:02.856Z,2.80
2023-04-24T09:36:34.411Z,2.37
2023-04-24T09:39:05.649Z,1.90
2023-04-24T09:41:35.206Z,2.50
2023-04-24T09:44:14.430Z,1.83
2023-04-24T09:46:43.843Z,3.23
2023-04-24T09:49:14.839Z,1.93
2023-04-24T09:51:43.359Z,2.10
2023-04-24T09:54:19.311Z,2.23
2023-04-24T09:56:47.903Z,2.57
2023-04-24T09:59:17.319Z,2.47
2023-04-24T10:01:46.075Z,2.63
2023-04-24T10:04:22.081Z,2.37
2023-04-24T10:06:51.411Z,2.97
2023-04-24T10:09:22.698Z,1.70
2023-04-24T10:11:52.057Z,2.17
2023-04-24T10:14:22.217Z,1.90
2023-04-24T10:16:51.252Z,2.00
2023-04-24T10:19:23.312Z,3.70
2023-04-24T10:21:52.190Z,3.00
2023-04-24T10:24:22.697Z,2.60
2023-04-24T10:26:51.048Z,2.40
2023-04-24T10:29:22.684Z,1.73
2023-04-24T10:31:51.302Z,2.30
2023-04-24T10:34:23.401Z,1.83
2023-04-24T10:36:56.470Z,1.20
2023-04-24T10:39:28.452Z,1.20
2023-04-24T10:41:58.946Z,3.30
2023-04-24T10:44:27.983Z,1.13
2023-04-24T10:46:57.779Z,1.20
2023-04-24T10:49:31.454Z,1.73
2023-04-24T10:52:04.414Z,1.70
2023-04-24T10:54:38.281Z,0.90
2023-04-24T10:57:33.925Z,0.90
2023-04-24T11:00:22.474Z,1.27
2023-04-24T11:02:53.732Z,0.60
2023-04-24T11:05:22.959Z,0.80
2023-04-24T11:08:14.563Z,1.27
2023-04-24T11:10:47.246Z,1.17
2023-04-24T11:13:17.715Z,2.47
2023-04-24T11:15:46.165Z,2.43
2023-04-24T11:18:17.892Z,0.97
2023-04-24T11:20:46.219Z,1.13
2023-04-24T11:23:15.552Z,0.83
2023-04-24T11:25:46.770Z,0.77
2023-04-24T11:28:18.817Z,0.70
2023-04-24T11:30:46.898Z,0.67
2023-04-24T11:33:23.055Z,0.50
2023-04-24T11:35:53.661Z,0.40
2023-04-24T11:38:25.028Z,0.67
2023-04-24T11:40:56.939Z,1.70
2023-04-24T11:43:25.700Z,0.40
2023-04-24T11:45:54.665Z,0.50
2023-04-24T11:48:24.069Z,0.50
2023-04-24T11:50:52.763Z,1.57
2023-04-24T11:53:22.260Z,0.60
2023-04-24T11:55:51.213Z,2.40
2023-04-24T11:58:23.491Z,1.10
2023-04-24T12:00:59.382Z,0.50
2023-04-24T12:03:27.927Z,0.77
2023-04-24T12:06:07.844Z,0.90
2023-04-24T12:08:38.437Z,1.97
2023-04-24T12:11:09.245Z,0.80
2023-04-24T12:13:38.754Z,0.50
2023-04-24T12:16:07.364Z,0.60
2023-04-24T12:18:36.255Z,0.47
2023-04-24T12:21:22.973Z,1.23
2023-04-24T12:23:51.979Z,0.87
2023-04-24T12:26:23.720Z,1.20
2023-04-24T12:28:53.255Z,0.40
2023-04-24T12:31:23.361Z,0.83
2023-04-24T12:33:52.117Z,0.73
2023-04-24T12:36:21.889Z,0.73
2023-04-24T12:38:55.471Z,0.63
2023-04-24T12:41:23.910Z,0.93
2023-04-24T12:43:57.360Z,0.70
2023-04-24T12:46:25.885Z,0.80
2023-04-24T12:48:54.327Z,0.80
2023-04-24T12:51:23.197Z,1.60
2023-04-24T12:53:51.920Z,2.93
2023-04-24T12:56:20.145Z,2.83
2023-04-24T12:58:48.249Z,5.37
2023-04-24T13:01:18.033Z,3.30
2023-04-24T13:03:46.511Z,2.93
2023-04-24T13:06:18.252Z,3.13
2023-04-24T13:08:46.463Z,2.83
2023-04-24T13:11:14.998Z,2.83
2023-04-24T13:13:43.425Z,2.87
2023-04-24T13:16:11.984Z,2.23
2023-04-24T13:18:41.532Z,2.80
2023-04-24T13:21:09.844Z,4.77
2023-04-24T13:23:37.953Z,4.87
2023-04-24T13:26:06.543Z,2.40
2023-04-24T13:28:34.647Z,4.00
2023-04-24T13:31:03.141Z,2.77
2023-04-24T13:33:31.413Z,5.40
2023-04-24T13:36:01.698Z,4.37
2023-04-24T13:38:30.101Z,3.20
2023-04-24T13:40:58.830Z,3.70
2023-04-24T13:43:27.126Z,5.27
2023-04-24T13:45:55.777Z,4.43
2023-04-24T13:48:23.933Z,4.00
2023-04-24T13:50:52.082Z,7.43
2023-04-24T13:53:21.805Z,4.93
2023-04-24T13:55:50.244Z,8.13
2023-04-24T13:58:18.515Z,3.53
2023-04-24T14:00:47.042Z,9.27
2023-04-24T14:03:15.256Z,3.23
2023-04-24T14:05:43.736Z,3.97
2023-04-24T14:08:12.171Z,5.30
2023-04-24T14:10:42.325Z,3.50
2023-04-24T14:13:10.847Z,3.63
2023-04-24T14:15:39.105Z,4.00
2023-04-24T14:18:07.442Z,2.90
2023-04-24T14:20:35.575Z,3.50
2023-04-24T14:23:03.938Z,4.10
2023-04-24T14:25:32.723Z,3.03
2023-04-24T14:28:02.622Z,3.50
2023-04-24T14:30:30.843Z,2.97
2023-04-24T14:32:59.288Z,2.60
2023-04-24T14:35:28.678Z,4.67
2023-04-24T14:37:58.787Z,6.13
2023-04-24T14:40:48.504Z,2.23
2023-04-24T14:43:16.520Z,2.80
2023-04-24T14:45:44.974Z,3.17
2023-04-24T14:48:13.724Z,3.10
2023-04-24T14:50:41.888Z,3.10
2023-04-24T14:53:10.697Z,4.20
2023-04-24T14:55:39.146Z,4.03
2023-04-24T14:58:07.546Z,2.70
2023-04-24T15:00:37.308Z,3.20
2023-04-24T15:03:09.999Z,4.63
2023-04-24T15:05:39.247Z,7.20
2023-04-24T15:08:07.675Z,5.83
2023-04-24T15:10:37.077Z,3.83
2023-04-24T15:13:05.372Z,3.53
2023-04-24T15:15:33.643Z,6.10
2023-04-24T15:18:03.502Z,5.70
2023-04-24T15:20:31.834Z,4.13
2023-04-24T15:23:01.455Z,7.00
2023-04-24T15:25:29.618Z,3.60
2023-04-24T15:27:57.740Z,6.87
2023-04-24T15:30:26.036Z,3.10
2023-04-24T15:32:54.596Z,6.97
2023-04-24T15:35:24.915Z,4.87
2023-04-24T15:37:53.256Z,7.50
2023-04-24T15:40:21.848Z,3.90
2023-04-24T15:42:50.625Z,5.47
2023-04-24T15:45:18.822Z,5.37
2023-04-24T15:47:47.704Z,4.43
2023-04-24T15:50:17.187Z,5.80
2023-04-24T15:52:47.428Z,5.63
2023-04-24T15:55:15.704Z,4.93
2023-04-24T15:57:44.789Z,6.03
2023-04-24T16:00:14.077Z,5.43
2023-04-24T16:02:42.485Z,6.03
2023-04-24T16:05:11.358Z,5.90
2023-04-24T16:07:40.763Z,5.17
2023-04-24T16:10:11.960Z,4.23
2023-04-24T16:12:40.180Z,5.03
2023-04-24T16:15:09.441Z,6.17
2023-04-24T16:17:38.113Z,6.03
2023-04-24T16:20:07.723Z,7.10
2023-04-24T16:22:36.021Z,5.87
2023-04-24T16:25:04.602Z,4.40
2023-04-24T16:27:34.234Z,5.90
2023-04-24T16:30:02.890Z,3.97
2023-04-24T16:32:31.667Z,5.17
2023-04-24T16:35:01.050Z,5.13
2023-04-24T16:37:31.267Z,6.47
2023-04-24T16:40:00.804Z,4.90
2023-04-24T16:42:28.958Z,5.90
2023-04-24T16:44:58.819Z,7.07
2023-04-24T16:47:26.996Z,5.77
2023-04-24T16:49:55.146Z,4.57
2023-04-24T16:52:23.408Z,4.97
2023-04-24T16:54:51.516Z,3.73
2023-04-24T16:57:19.667Z,6.17
2023-04-24T16:59:47.978Z,4.40
2023-04-24T17:02:17.529Z,5.43
2023-04-24T17:04:45.950Z,5.50
2023-04-24T17:07:14.266Z,7.33
2023-04-24T17:09:42.831Z,7.27
2023-04-24T17:12:11.127Z,5.20
2023-04-24T17:14:39.191Z,6.97
2023-04-24T17:17:07.732Z,6.37
2023-04-24T17:19:37.490Z,5.57
2023-04-24T17:22:06.059Z,9.07
2023-04-24T17:24:34.694Z,7.43
2023-04-24T17:27:13.904Z,6.77
2023-04-24T17:29:43.874Z,5.40
2023-04-24T17:32:12.108Z,8.80
2023-04-24T17:34:43.447Z,8.30
2023-04-24T17:37:11.955Z,7.60
2023-04-24T17:39:40.304Z,8.13
2023-04-24T17:42:08.653Z,8.17
2023-04-24T17:44:36.804Z,12.53
2023-04-24T17:47:05.375Z,10.27
2023-04-24T17:49:33.627Z,7.67
2023-04-24T17:52:03.194Z,7.70
2023-04-24T17:54:31.518Z,7.57
2023-04-24T17:57:00.057Z,7.73
2023-04-24T17:59:29.863Z,5.53
2023-04-24T18:01:58.534Z,6.70
2023-04-24T18:04:27.511Z,8.00
2023-04-24T18:06:55.865Z,7.60
2023-04-24T18:09:25.600Z,5.77
2023-04-24T18:11:54.107Z,7.90
2023-04-24T18:14:22.218Z,7.40
2023-04-24T18:16:50.556Z,7.93
2023-04-24T18:19:18.693Z,5.30
2023-04-24T18:21:46.757Z,7.60
2023-04-24T18:24:15.009Z,7.10
2023-04-24T18:26:44.655Z,7.73
2023-04-24T18:29:13.052Z,5.80
2023-04-24T18:31:41.487Z,9.00
2023-04-24T18:34:09.940Z,5.93
2023-04-24T18:36:37.967Z,6.57
2023-04-24T18:39:06.342Z,6.23
2023-04-24T18:41:35.526Z,5.43
2023-04-24T18:44:05.230Z,8.30
2023-04-24T18:46:38.010Z,7.13
2023-04-24T18:49:06.218Z,6.13
2023-04-24T18:51:46.631Z,6.63
2023-04-24T18:54:21.279Z,4.60
2023-04-24T18:56:51.750Z,6.90
2023-04-24T18:59:25.250Z,5.87
2023-04-24T19:01:53.426Z,5.97
2023-04-24T19:04:22.625Z,7.97
2023-04-24T19:06:50.899Z,8.47
2023-04-24T19:09:19.044Z,9.00
2023-04-24T19:11:47.711Z,7.30
2023-04-24T19:14:16.425Z,7.57
2023-04-24T19:16:50.267Z,6.80
2023-04-24T19:19:18.522Z,8.87
2023-04-24T19:21:47.518Z,9.57
2023-04-24T19:24:16.668Z,7.23
2023-04-24T19:26:45.569Z,9.20
2023-04-24T19:29:13.684Z,6.50
2023-04-24T19:31:42.098Z,6.40
2023-04-24T19:34:11.790Z,10.97
2023-04-24T19:36:39.941Z,5.73
2023-04-24T19:39:08.366Z,6.90
2023-04-24T19:41:39.353Z,7.93
2023-04-24T19:44:07.953Z,7.23
2023-04-24T19:46:36.358Z,6.43
2023-04-24T19:49:04.722Z,6.20
2023-04-24T19:51:34.745Z,8.97
2023-04-24T19:54:03.352Z,6.53
2023-04-24T19:56:31.446Z,8.50
2023-04-24T19:58:59.766Z,5.93
2023-04-24T20:01:28.096Z,7.20
2023-04-24T20:03:56.725Z,6.53
2023-04-24T20:06:24.973Z,6.13
2023-04-24T20:08:55.972Z,5.70
2023-04-24T20:11:24.151Z,8.80
2023-04-24T20:13:52.506Z,8.20
2023-04-24T20:16:20.713Z,10.13
2023-04-24T20:18:49.272Z,8.17
2023-04-24T20:21:18.232Z,11.30
2023-04-24T20:23:46.602Z,8.33
2023-04-24T20:26:17.172Z,8.37
2023-04-24T20:28:45.325Z,6.50
2023-04-24T20:31:13.526Z,7.73
2023-04-24T20:33:42.091Z,6.83
2023-04-24T20:36:10.852Z,9.10
2023-04-24T20:38:39.598Z,6.47
2023-04-24T20:41:09.021Z,8.47
2023-04-24T20:43:38.600Z,6.90
2023-04-24T20:46:09.516Z,8.73
2023-04-24T20:48:37.543Z,9.23
2023-04-24T20:51:05.708Z,8.90
2023-04-24T20:53:34.107Z,8.93
2023-04-24T20:56:02.275Z,10.77
2023-04-24T20:58:30.689Z,11.77
2023-04-24T21:01:00.605Z,9.67
2023-04-24T21:03:29.100Z,9.53
2023-04-24T21:05:57.294Z,7.63
2023-04-24T21:08:25.562Z,11.63
2023-04-24T21:10:53.729Z,8.80
2023-04-24T21:13:21.842Z,9.17
2023-04-24T21:15:49.884Z,8.43
2023-04-24T21:18:19.831Z,8.87
2023-04-24T21:20:48.534Z,10.70
2023-04-24T21:23:16.727Z,11.67
2023-04-24T21:25:45.096Z,10.17
2023-04-24T21:28:13.566Z,9.53
2023-04-24T21:30:41.789Z,11.77
2023-04-24T21:33:09.910Z,8.27
2023-04-24T21:35:40.685Z,8.63
2023-04-24T21:38:09.054Z,9.17
2023-04-24T21:40:37.357Z,10.03
2023-04-24T21:43:05.726Z,10.57
2023-04-24T21:45:34.236Z,9.97
2023-04-24T21:48:02.404Z,9.73
2023-04-24T21:50:30.627Z,9.73
2023-04-24T21:53:00.581Z,13.67
2023-04-24T21:55:28.819Z,11.27
2023-04-24T21:57:57.210Z,12.63
2023-04-24T22:00:26.232Z,11.63
2023-04-24T22:02:54.656Z,9.67
2023-04-24T22:05:23.227Z,12.40
2023-04-24T22:07:51.674Z,11.23
2023-04-24T22:10:21.492Z,15.63
2023-04-24T22:12:49.649Z,14.23
2023-04-24T22:15:17.817Z,14.40
2023-04-24T22:17:46.297Z,13.10
2023-04-24T22:20:14.910Z,14.63
2023-04-24T22:22:43.460Z,14.80
2023-04-24T22:25:11.886Z,13.10
2023-04-24T22:27:41.936Z,14.03
2023-04-24T22:30:11.060Z,12.93
2023-04-24T22:32:39.323Z,12.77
2023-04-24T22:35:09.051Z,12.17
2023-04-24T22:37:37.536Z,13.03
2023-04-24T22:40:08.665Z,11.33
2023-04-24T22:42:37.113Z,15.33
2023-04-24T22:45:08.483Z,12.80
2023-04-24T22:47:36.774Z,14.53
2023-04-24T22:50:06.226Z,12.57
2023-04-24T22:52:35.933Z,13.07
2023-04-24T22:55:04.362Z,15.07
2023-04-24T22:57:32.521Z,13.53
2023-04-24T23:00:00.922Z,12.83
2023-04-24T23:02:30.650Z,11.73
2023-04-24T23:04:59.006Z,11.93
2023-04-24T23:07:29.101Z,13.63
2023-04-24T23:09:57.300Z,14.40
2023-04-24T23:12:25.365Z,14.93
2023-04-24T23:14:53.503Z,14.27
2023-04-24T23:17:21.909Z,13.20
2023-04-24T23:19:51.445Z,14.60
2023-04-24T23:22:19.637Z,14.30
2023-04-24T23:24:48.030Z,15.23
2023-04-24T23:27:17.519Z,13.87
2023-04-24T23:29:45.902Z,15.50
2023-04-24T23:32:13.989Z,14.10
2023-04-24T23:34:42.448Z,14.83
2023-04-24T23:37:13.438Z,16.30
2023-04-24T23:39:41.649Z,13.77
2023-04-24T23:42:09.800Z,16.07
2023-04-24T23:44:38.112Z,14.20
2023-04-24T23:47:06.478Z,15.50
2023-04-24T23:49:36.426Z,15.60
2023-04-24T23:52:04.760Z,15.70
2023-04-24T23:54:35.079Z,14.63
2023-04-24T23:57:04.685Z,14.90
2023-04-24T23:59:32.767Z,14.63
